createdAt,value
2023-04-06T00:00:08.973Z,2.67
2023-04-06T00:02:37.446Z,2.93
2023-04-06T00:05:06.294Z,2.60
2023-04-06T00:07:36.485Z,3.70
2023-04-06T00:10:06.518Z,2.50
2023-04-06T00:12:34.917Z,3.03
2023-04-06T00:15:06.689Z,2.60
2023-04-06T00:17:35.108Z,2.50
2023-04-06T00:20:03.844Z,3.17
2023-04-06T00:22:32.210Z,3.17
2023-04-06T00:25:00.796Z,2.80
2023-04-06T00:27:29.234Z,2.70
2023-04-06T00:29:58.167Z,2.60
2023-04-06T00:32:28.878Z,2.60
2023-04-06T00:34:57.586Z,3.67
2023-04-06T00:37:25.935Z,4.87
2023-04-06T00:39:54.339Z,4.30
2023-04-06T00:42:26.828Z,2.77
2023-04-06T00:44:56.100Z,2.87
2023-04-06T00:47:26.174Z,2.90
2023-04-06T00:49:56.546Z,2.53
2023-04-06T00:52:25.190Z,3.23
2023-04-06T00:54:53.850Z,2.40
2023-04-06T00:57:22.292Z,2.33
2023-04-06T00:59:50.689Z,2.30
2023-04-06T01:02:19.092Z,2.50
2023-04-06T01:04:47.569Z,2.47
2023-04-06T01:07:17.450Z,3.03
2023-04-06T01:09:45.843Z,3.70
2023-04-06T01:12:14.266Z,2.80
2023-04-06T01:14:42.662Z,2.90
2023-04-06T01:17:11.115Z,2.50
2023-04-06T01:19:41.266Z,2.67
2023-04-06T01:22:10.016Z,3.27
2023-04-06T01:24:40.049Z,3.40
2023-04-06T01:27:08.662Z,3.63
2023-04-06T01:29:37.527Z,3.27
2023-04-06T01:32:06.679Z,2.50
2023-04-06T01:34:35.429Z,2.73
2023-04-06T01:37:04.088Z,3.03
2023-04-06T01:39:33.381Z,2.50
2023-04-06T01:42:03.440Z,2.50
2023-04-06T01:44:32.186Z,2.50
2023-04-06T01:47:00.809Z,2.67
2023-04-06T01:49:29.486Z,2.50
2023-04-06T01:51:58.258Z,2.87
2023-04-06T01:54:26.974Z,2.50
2023-04-06T01:56:55.961Z,3.37
2023-04-06T01:59:26.142Z,2.40
2023-04-06T02:01:54.978Z,3.50
2023-04-06T02:04:23.664Z,2.73
2023-04-06T02:06:52.613Z,2.47
2023-04-06T02:09:21.418Z,2.33
2023-04-06T02:11:50.120Z,2.30
2023-04-06T02:14:18.787Z,2.53
2023-04-06T02:16:48.885Z,2.97
2023-04-06T02:19:17.548Z,2.43
2023-04-06T02:21:46.488Z,2.63
2023-04-06T02:24:15.116Z,2.60
2023-04-06T02:26:43.791Z,2.53
2023-04-06T02:29:12.436Z,2.90
2023-04-06T02:31:41.201Z,2.27
2023-04-06T02:34:13.328Z,2.50
2023-04-06T02:36:41.979Z,2.87
2023-04-06T02:39:11.100Z,2.60
2023-04-06T02:41:39.830Z,2.87
2023-04-06T02:44:09.911Z,2.90
2023-04-06T02:46:38.558Z,2.77
2023-04-06T02:49:07.830Z,3.57
2023-04-06T02:51:38.052Z,3.70
2023-04-06T02:54:06.771Z,3.30
2023-04-06T02:56:35.375Z,2.90
2023-04-06T02:59:03.956Z,3.63
2023-04-06T03:01:32.757Z,2.40
2023-04-06T03:04:01.335Z,3.10
2023-04-06T03:06:29.728Z,3.37
2023-04-06T03:08:59.555Z,3.00
2023-04-06T03:11:28.018Z,3.30
2023-04-06T03:13:56.493Z,3.10
2023-04-06T03:16:24.857Z,3.33
2023-04-06T03:18:53.251Z,2.67
2023-04-06T03:21:21.705Z,2.70
2023-04-06T03:23:52.059Z,2.70
2023-04-06T03:26:23.309Z,2.70
2023-04-06T03:28:51.777Z,21.80
2023-04-06T03:31:20.242Z,16.23
2023-04-06T03:33:48.640Z,8.13
2023-04-06T03:36:16.984Z,5.40
2023-04-06T03:38:45.425Z,3.73
2023-04-06T03:41:13.845Z,3.70
2023-04-06T03:43:43.770Z,3.77
2023-04-06T03:46:12.257Z,3.30
2023-04-06T03:48:40.889Z,3.67
2023-04-06T03:51:09.360Z,2.80
2023-04-06T03:53:38.731Z,2.80
2023-04-06T03:56:07.820Z,3.87
2023-04-06T03:58:36.242Z,2.73
2023-04-06T04:01:06.359Z,3.00
2023-04-06T04:03:34.840Z,3.67
2023-04-06T04:06:03.555Z,2.73
2023-04-06T04:08:31.944Z,3.40
2023-04-06T04:11:00.320Z,2.83
2023-04-06T04:13:28.760Z,2.80
2023-04-06T04:15:57.383Z,3.33
2023-04-06T04:18:27.171Z,3.00
2023-04-06T04:20:55.693Z,2.87
2023-04-06T04:23:24.235Z,3.70
2023-04-06T04:25:52.820Z,3.10
2023-04-06T04:28:21.233Z,3.03
2023-04-06T04:30:49.605Z,4.00
2023-04-06T04:33:18.058Z,2.53
2023-04-06T04:35:49.271Z,4.00
2023-04-06T04:38:17.715Z,3.83
2023-04-06T04:40:46.292Z,3.87
2023-04-06T04:43:14.684Z,4.07
2023-04-06T04:45:43.115Z,5.57
2023-04-06T04:48:11.608Z,3.80
2023-04-06T04:50:40.018Z,3.40
2023-04-06T04:53:09.926Z,3.20
2023-04-06T04:55:38.309Z,4.60
2023-04-06T04:58:06.770Z,3.13
2023-04-06T05:00:35.225Z,3.70
2023-04-06T05:03:03.723Z,3.03
2023-04-06T05:05:32.282Z,4.27
2023-04-06T05:08:00.623Z,3.00
2023-04-06T05:10:30.494Z,2.67
2023-04-06T05:12:59.282Z,3.40
2023-04-06T05:15:27.887Z,3.93
2023-04-06T05:17:56.616Z,3.90
2023-04-06T05:20:25.217Z,4.80
2023-04-06T05:22:53.613Z,3.23
2023-04-06T05:25:22.226Z,3.70
2023-04-06T05:27:52.179Z,3.67
2023-04-06T05:30:22.396Z,3.43
2023-04-06T05:32:50.928Z,3.77
2023-04-06T05:35:19.738Z,3.77
2023-04-06T05:37:48.512Z,4.23
2023-04-06T05:40:17.153Z,6.40
2023-04-06T05:42:45.906Z,6.90
2023-04-06T05:45:17.879Z,10.57
2023-04-06T05:47:46.800Z,16.30
2023-04-06T05:50:16.337Z,25.57
2023-04-06T05:52:47.404Z,22.17
2023-04-06T05:55:16.004Z,22.23
2023-04-06T05:57:44.374Z,16.10
2023-04-06T06:00:14.131Z,12.63
2023-04-06T06:02:44.492Z,20.57
2023-04-06T06:05:13.013Z,28.00
2023-04-06T06:07:41.404Z,38.53
2023-04-06T06:10:11.295Z,49.77
2023-04-06T06:12:39.710Z,56.57
2023-04-06T06:15:09.121Z,48.30
2023-04-06T06:17:39.120Z,47.97
2023-04-06T06:20:10.825Z,45.77
2023-04-06T06:22:39.390Z,53.00
2023-04-06T06:25:08.057Z,50.83
2023-04-06T06:27:36.966Z,50.27
2023-04-06T06:30:06.433Z,47.50
2023-04-06T06:32:35.018Z,47.20
2023-04-06T06:35:04.090Z,49.47
2023-04-06T06:37:33.933Z,39.67
2023-04-06T06:40:02.413Z,31.37
2023-04-06T06:42:31.122Z,23.20
2023-04-06T06:44:59.708Z,16.43
2023-04-06T06:47:28.176Z,13.87
2023-04-06T06:49:56.967Z,17.53
2023-04-06T06:52:25.467Z,18.30
2023-04-06T06:54:57.139Z,21.30
2023-04-06T06:57:26.451Z,21.93
2023-04-06T06:59:54.916Z,22.57
2023-04-06T07:02:23.425Z,28.40
2023-04-06T07:04:51.901Z,27.50
2023-04-06T07:07:21.068Z,31.80
2023-04-06T07:09:49.572Z,28.13
2023-04-06T07:12:19.463Z,24.30
2023-04-06T07:14:47.912Z,18.20
2023-04-06T07:17:16.616Z,17.67
2023-04-06T07:19:45.059Z,15.60
2023-04-06T07:22:13.771Z,20.13
2023-04-06T07:24:42.345Z,21.53
2023-04-06T07:27:10.903Z,22.33
2023-04-06T07:29:40.938Z,20.90
2023-04-06T07:32:09.555Z,23.10
2023-04-06T07:34:38.087Z,20.67
2023-04-06T07:37:06.774Z,15.80
2023-04-06T07:39:37.039Z,15.70
2023-04-06T07:42:05.636Z,13.47
2023-04-06T07:44:34.141Z,11.93
2023-04-06T07:47:04.035Z,10.40
2023-04-06T07:49:33.946Z,10.20
2023-04-06T07:52:03.995Z,10.67
2023-04-06T07:54:32.440Z,10.30
2023-04-06T07:57:00.968Z,9.43
2023-04-06T07:59:29.356Z,8.83
2023-04-06T08:01:57.806Z,7.77
2023-04-06T08:04:27.720Z,8.07
2023-04-06T08:06:56.178Z,8.90
2023-04-06T08:09:24.696Z,8.80
2023-04-06T08:11:53.082Z,9.07
2023-04-06T08:14:21.604Z,8.57
2023-04-06T08:16:50.011Z,9.80
2023-04-06T08:19:19.906Z,8.80
2023-04-06T08:21:49.770Z,7.50
2023-04-06T08:24:18.203Z,8.87
2023-04-06T08:26:46.777Z,7.93
2023-04-06T08:29:15.180Z,7.33
2023-04-06T08:31:45.775Z,8.23
2023-04-06T08:34:14.754Z,7.97
2023-04-06T08:36:43.804Z,9.00
2023-04-06T08:39:13.654Z,9.27
2023-04-06T08:41:45.060Z,10.17
2023-04-06T08:44:14.020Z,7.33
2023-04-06T08:46:42.490Z,8.23
2023-04-06T08:49:11.159Z,6.60
2023-04-06T08:51:40.167Z,7.93
2023-04-06T08:54:08.761Z,7.87
2023-04-06T08:56:41.413Z,6.53
2023-04-06T08:59:10.447Z,6.17
2023-04-06T09:01:43.343Z,6.67
2023-04-06T09:04:13.819Z,7.23
2023-04-06T09:06:42.944Z,6.37
2023-04-06T09:09:11.390Z,5.47
2023-04-06T09:11:49.169Z,5.10
2023-04-06T09:14:17.891Z,7.13
2023-04-06T09:16:48.625Z,6.63
2023-04-06T09:19:17.173Z,8.07
2023-04-06T09:21:45.689Z,7.80
2023-04-06T09:24:14.089Z,7.20
2023-04-06T09:26:50.098Z,7.17
2023-04-06T09:29:25.871Z,7.27
2023-04-06T09:31:54.549Z,6.90
2023-04-06T09:34:26.053Z,9.30
2023-04-06T09:36:54.438Z,8.70
2023-04-06T09:39:24.521Z,8.47
2023-04-06T09:41:55.530Z,10.90
2023-04-06T09:44:25.087Z,8.13
2023-04-06T09:47:00.802Z,7.90
2023-04-06T09:49:32.654Z,7.93
2023-04-06T09:52:03.881Z,6.73
2023-04-06T09:54:33.621Z,6.70
2023-04-06T09:57:15.089Z,6.30
2023-04-06T09:59:53.219Z,8.43
2023-04-06T10:02:34.422Z,7.03
2023-04-06T10:05:09.316Z,7.63
2023-04-06T10:07:46.225Z,6.20
2023-04-06T10:10:25.577Z,6.37
2023-04-06T10:12:56.784Z,7.37
2023-04-06T10:15:25.391Z,7.30
2023-04-06T10:17:54.381Z,7.73
2023-04-06T10:20:30.195Z,6.43
2023-04-06T10:23:07.307Z,7.63
2023-04-06T10:25:38.797Z,6.57
2023-04-06T10:28:11.041Z,6.27
2023-04-06T10:30:45.564Z,6.57
2023-04-06T10:33:18.340Z,4.90
2023-04-06T10:35:47.327Z,8.10
2023-04-06T10:38:16.253Z,6.43
2023-04-06T10:40:45.723Z,6.83
2023-04-06T10:43:20.833Z,6.57
2023-04-06T10:45:57.772Z,6.63
2023-04-06T10:48:26.631Z,6.57
2023-04-06T10:50:55.870Z,5.27
2023-04-06T10:53:25.175Z,5.07
2023-04-06T10:55:54.270Z,5.10
2023-04-06T10:58:27.693Z,5.93
2023-04-06T11:00:57.419Z,5.60
2023-04-06T11:03:25.934Z,5.45
2023-04-06T11:05:54.302Z,5.22
2023-04-06T11:08:27.737Z,4.90
2023-04-06T11:11:07.739Z,5.15
2023-04-06T11:13:42.855Z,4.97
2023-04-06T11:16:18.770Z,4.38
2023-04-06T11:18:55.896Z,6.70
2023-04-06T11:21:35.982Z,5.03
2023-04-06T11:24:08.857Z,4.32
2023-04-06T11:26:45.998Z,5.72
2023-04-06T11:29:17.844Z,4.95
2023-04-06T11:31:48.789Z,6.90
2023-04-06T11:34:20.144Z,7.82
2023-04-06T11:36:50.030Z,5.80
2023-04-06T11:39:22.303Z,4.45
2023-04-06T11:41:51.080Z,4.50
2023-04-06T11:44:34.326Z,6.43
2023-04-06T11:47:03.656Z,6.07
2023-04-06T11:49:32.947Z,5.78
2023-04-06T11:52:02.706Z,5.32
2023-04-06T11:54:35.546Z,4.38
2023-04-06T11:57:04.815Z,4.40
2023-04-06T11:59:35.272Z,4.60
2023-04-06T12:02:04.790Z,5.30
2023-04-06T12:04:33.746Z,5.88
2023-04-06T12:07:02.311Z,5.70
2023-04-06T12:09:30.995Z,5.57
2023-04-06T12:11:59.506Z,5.00
2023-04-06T12:14:27.946Z,5.80
2023-04-06T12:16:57.759Z,5.38
2023-04-06T12:19:27.012Z,7.15
2023-04-06T12:21:55.964Z,5.22
2023-04-06T12:24:24.376Z,5.22
2023-04-06T12:26:59.514Z,7.03
2023-04-06T12:29:31.681Z,4.82
2023-04-06T12:32:03.063Z,6.90
2023-04-06T12:34:31.666Z,5.20
2023-04-06T12:37:00.630Z,5.22
2023-04-06T12:39:30.079Z,4.55
2023-04-06T12:41:58.775Z,4.82
2023-04-06T12:44:27.381Z,4.68
2023-04-06T12:46:56.614Z,5.53
2023-04-06T12:49:26.655Z,5.00
2023-04-06T12:51:55.198Z,5.07
2023-04-06T12:54:23.683Z,6.60
2023-04-06T12:56:52.133Z,4.35
2023-04-06T12:59:22.051Z,4.10
2023-04-06T13:01:50.674Z,4.63
2023-04-06T13:04:19.220Z,4.10
2023-04-06T13:06:48.992Z,4.00
2023-04-06T13:09:17.368Z,4.00
2023-04-06T13:11:47.922Z,3.95
2023-04-06T13:14:20.133Z,4.68
2023-04-06T13:16:48.772Z,3.85
2023-04-06T13:19:17.645Z,3.80
2023-04-06T13:21:46.101Z,3.60
2023-04-06T13:24:17.235Z,3.83
2023-04-06T13:26:46.301Z,3.17
2023-04-06T13:29:14.742Z,3.30
2023-04-06T13:31:43.356Z,3.90
2023-04-06T13:34:11.920Z,4.25
2023-04-06T13:36:42.500Z,3.50
2023-04-06T13:39:11.002Z,3.72
2023-04-06T13:41:41.308Z,3.65
2023-04-06T13:44:09.882Z,3.83
2023-04-06T13:46:38.345Z,3.45
2023-04-06T13:49:07.187Z,3.50
2023-04-06T13:51:35.671Z,4.20
2023-04-06T13:54:04.039Z,5.22
2023-04-06T13:56:33.112Z,5.18
2023-04-06T13:59:02.909Z,3.50
2023-04-06T14:01:31.343Z,4.30
2023-04-06T14:03:59.795Z,3.58
2023-04-06T14:06:31.559Z,3.53
2023-04-06T14:09:00.742Z,3.10
2023-04-06T14:11:29.209Z,3.40
2023-04-06T14:13:58.306Z,3.40
2023-04-06T14:16:28.679Z,4.15
2023-04-06T14:18:58.962Z,3.60
2023-04-06T14:21:27.655Z,4.20
2023-04-06T14:23:58.070Z,3.53
2023-04-06T14:26:28.758Z,3.40
2023-04-06T14:28:57.126Z,3.60
2023-04-06T14:31:25.524Z,5.85
2023-04-06T14:33:55.865Z,3.70
2023-04-06T14:36:24.433Z,3.33
2023-04-06T14:38:53.342Z,4.03
2023-04-06T14:41:24.736Z,4.43
2023-04-06T14:43:54.617Z,3.80
2023-04-06T14:46:22.983Z,3.40
2023-04-06T14:48:51.942Z,7.47
2023-04-06T14:51:21.722Z,3.47
2023-04-06T14:53:50.126Z,4.40
2023-04-06T14:56:22.769Z,4.05
2023-04-06T14:58:51.890Z,3.22
2023-04-06T15:01:21.882Z,3.15
2023-04-06T15:03:50.729Z,4.18
2023-04-06T15:06:22.575Z,4.43
2023-04-06T15:08:51.880Z,3.20
2023-04-06T15:11:20.220Z,4.13
2023-04-06T15:13:48.597Z,4.15
2023-04-06T15:16:17.089Z,3.30
2023-04-06T15:18:45.582Z,3.03
2023-04-06T15:21:13.898Z,5.55
2023-04-06T15:23:43.731Z,4.03
2023-04-06T15:26:12.159Z,2.63
2023-04-06T15:28:40.518Z,3.42
2023-04-06T15:31:28.242Z,3.92
2023-04-06T15:34:02.170Z,3.25
2023-04-06T15:36:31.701Z,3.95
2023-04-06T15:39:01.944Z,4.68
2023-04-06T15:41:30.375Z,3.25
2023-04-06T15:43:58.692Z,3.58
2023-04-06T15:46:28.360Z,4.22
2023-04-06T15:48:57.709Z,4.55
2023-04-06T15:51:29.039Z,3.58
2023-04-06T15:53:58.754Z,4.22
2023-04-06T15:56:28.535Z,5.40
2023-04-06T15:58:57.117Z,4.30
2023-04-06T16:01:25.540Z,5.13
2023-04-06T16:03:54.023Z,7.65
2023-04-06T16:06:22.399Z,5.38
2023-04-06T16:08:50.805Z,4.80
2023-04-06T16:11:19.161Z,4.20
2023-04-06T16:13:55.126Z,4.05
2023-04-06T16:16:24.076Z,6.13
2023-04-06T16:18:52.581Z,4.90
2023-04-06T16:21:20.973Z,5.88
2023-04-06T16:23:49.481Z,4.25
2023-04-06T16:26:19.170Z,7.28
2023-04-06T16:28:49.494Z,9.75
2023-04-06T16:31:22.396Z,11.50
2023-04-06T16:33:51.637Z,10.32
2023-04-06T16:36:24.426Z,9.68
2023-04-06T16:38:53.008Z,6.65
2023-04-06T16:41:21.620Z,7.82
2023-04-06T16:43:51.680Z,9.35
2023-04-06T16:46:20.236Z,5.28
2023-04-06T16:48:48.731Z,6.65
2023-04-06T16:51:18.928Z,4.85
2023-04-06T16:53:48.347Z,4.07
2023-04-06T16:56:16.863Z,3.67
2023-04-06T16:58:45.735Z,4.22
2023-04-06T17:01:21.456Z,4.70
2023-04-06T17:03:50.286Z,3.30
2023-04-06T17:06:19.162Z,3.05
2023-04-06T17:08:48.808Z,4.88
2023-04-06T17:11:23.506Z,3.40
2023-04-06T17:13:56.277Z,2.90
2023-04-06T17:16:28.486Z,5.38
2023-04-06T17:18:58.365Z,6.40
2023-04-06T17:21:26.711Z,6.10
2023-04-06T17:23:55.043Z,6.97
2023-04-06T17:26:23.407Z,14.25
2023-04-06T17:28:51.708Z,21.45
2023-04-06T17:31:20.179Z,22.02
2023-04-06T17:33:49.948Z,26.20
2023-04-06T17:36:19.831Z,27.65
2023-04-06T17:38:48.887Z,35.05
2023-04-06T17:41:17.586Z,905.10
2023-04-06T17:43:46.249Z,1377.20
2023-04-06T17:46:14.844Z,654.95
2023-04-06T17:48:44.033Z,338.58
2023-04-06T17:51:19.591Z,308.15
2023-04-06T17:53:47.982Z,116.25
2023-04-06T17:56:16.404Z,69.28
2023-04-06T17:58:45.543Z,43.90
2023-04-06T18:01:14.824Z,49.13
2023-04-06T18:03:43.465Z,30.83
2023-04-06T18:06:13.459Z,33.13
2023-04-06T18:08:44.111Z,17.83
2023-04-06T18:11:18.524Z,14.93
2023-04-06T18:13:47.033Z,11.40
2023-04-06T18:16:17.456Z,19.47
2023-04-06T18:18:46.177Z,21.17
2023-04-06T18:21:14.561Z,19.73
2023-04-06T18:23:44.336Z,23.20
2023-04-06T18:26:18.195Z,27.33
2023-04-06T18:28:46.696Z,26.20
2023-04-06T18:31:15.909Z,25.93
2023-04-06T18:33:44.466Z,20.70
2023-04-06T18:36:14.440Z,16.73
2023-04-06T18:38:48.069Z,15.73
2023-04-06T18:41:17.939Z,15.90
2023-04-06T18:43:46.658Z,14.93
2023-04-06T18:46:16.460Z,14.70
2023-04-06T18:48:45.232Z,13.27
2023-04-06T18:51:13.752Z,10.60
2023-04-06T18:53:42.131Z,9.33
2023-04-06T18:56:19.496Z,8.40
2023-04-06T18:58:49.483Z,11.00
2023-04-06T19:01:25.824Z,9.80
2023-04-06T19:03:55.159Z,11.13
2023-04-06T19:06:24.213Z,10.30
2023-04-06T19:08:53.047Z,11.10
2023-04-06T19:11:25.188Z,7.87
2023-04-06T19:13:55.391Z,8.13
2023-04-06T19:16:23.931Z,8.90
2023-04-06T19:18:52.307Z,10.07
2023-04-06T19:21:22.203Z,7.93
2023-04-06T19:23:55.140Z,6.90
2023-04-06T19:26:28.019Z,7.13
2023-04-06T19:28:56.635Z,6.90
2023-04-06T19:31:27.084Z,7.73
2023-04-06T19:33:55.752Z,7.63
2023-04-06T19:36:24.169Z,8.93
2023-04-06T19:38:52.538Z,7.90
2023-04-06T19:41:21.587Z,8.47
2023-04-06T19:43:51.495Z,10.03
2023-04-06T19:46:20.153Z,9.20
2023-04-06T19:48:48.544Z,11.73
2023-04-06T19:51:16.961Z,17.93
2023-04-06T19:53:45.383Z,17.20
2023-04-06T19:56:13.860Z,13.00
2023-04-06T19:58:42.196Z,12.30
2023-04-06T20:01:11.980Z,9.70
2023-04-06T20:03:41.080Z,6.77
2023-04-06T20:06:09.592Z,6.13
2023-04-06T20:08:37.938Z,5.90
2023-04-06T20:11:07.738Z,6.37
2023-04-06T20:13:36.788Z,6.73
2023-04-06T20:16:05.750Z,7.00
2023-04-06T20:18:35.645Z,9.30
2023-04-06T20:21:03.957Z,9.33
2023-04-06T20:23:35.087Z,12.20
2023-04-06T20:26:03.717Z,8.40
2023-04-06T20:28:32.751Z,7.17
2023-04-06T20:31:01.246Z,8.63
2023-04-06T20:33:29.605Z,8.23
2023-04-06T20:36:00.053Z,6.67
2023-04-06T20:41:00.368Z,6.73
2023-04-06T20:43:29.553Z,7.27
2023-04-06T20:45:58.749Z,7.63
2023-04-06T20:48:27.422Z,7.67
2023-04-06T20:50:55.882Z,6.70
2023-04-06T20:53:25.697Z,5.90
2023-04-06T20:55:54.100Z,5.10
2023-04-06T20:58:22.437Z,5.40
2023-04-06T21:00:50.821Z,6.30
2023-04-06T21:03:19.674Z,5.43
2023-04-06T21:05:52.764Z,5.30
2023-04-06T21:08:21.310Z,5.37
2023-04-06T21:10:51.119Z,7.13
2023-04-06T21:13:19.748Z,7.40
2023-04-06T21:15:48.487Z,7.00
2023-04-06T21:18:16.961Z,6.23
2023-04-06T21:20:45.561Z,6.73
2023-04-06T21:23:13.923Z,5.40
2023-04-06T21:25:42.191Z,4.83
2023-04-06T21:28:11.942Z,6.23
2023-04-06T21:30:41.311Z,5.87
2023-04-06T21:33:11.310Z,5.97
2023-04-06T21:35:40.609Z,7.87
2023-04-06T21:38:09.219Z,9.33
2023-04-06T21:40:38.949Z,7.67
2023-04-06T21:43:07.987Z,6.67
2023-04-06T21:45:38.705Z,6.77
2023-04-06T21:48:07.706Z,6.63
2023-04-06T21:50:40.737Z,7.20
2023-04-06T21:53:09.221Z,6.37
2023-04-06T21:55:37.584Z,6.90
2023-04-06T21:58:07.395Z,5.33
2023-04-06T22:00:37.143Z,4.27
2023-04-06T22:03:05.821Z,4.43
2023-04-06T22:05:34.461Z,4.63
2023-04-06T22:08:03.258Z,4.40
2023-04-06T22:10:32.018Z,4.87
2023-04-06T22:13:00.420Z,5.20
2023-04-06T22:15:28.996Z,4.77
2023-04-06T22:17:59.211Z,5.30
2023-04-06T22:20:27.931Z,6.53
2023-04-06T22:22:56.702Z,4.33
2023-04-06T22:25:25.141Z,5.40
2023-04-06T22:27:53.569Z,4.53
2023-04-06T22:30:22.029Z,3.60
2023-04-06T22:32:50.493Z,4.40
2023-04-06T22:35:20.691Z,4.83
2023-04-06T22:37:49.021Z,4.43
2023-04-06T22:40:17.669Z,5.80
2023-04-06T22:42:46.040Z,5.13
2023-04-06T22:45:14.564Z,4.60
2023-04-06T22:47:43.920Z,3.93
2023-04-06T22:50:12.569Z,3.90
2023-04-06T22:52:42.340Z,4.23
2023-04-06T22:55:10.940Z,3.97
2023-04-06T22:57:39.271Z,4.17
2023-04-06T23:00:09.152Z,5.40
2023-04-06T23:02:37.628Z,4.33
2023-04-06T23:05:07.092Z,5.90
2023-04-06T23:07:35.718Z,5.80
2023-04-06T23:10:06.186Z,5.80
2023-04-06T23:12:34.561Z,3.97
2023-04-06T23:15:02.865Z,4.73
2023-04-06T23:17:31.551Z,4.80
2023-04-06T23:19:59.956Z,5.83
2023-04-06T23:22:28.309Z,3.87
2023-04-06T23:24:56.887Z,4.60
2023-04-06T23:27:26.616Z,3.80
2023-04-06T23:29:55.839Z,5.53
2023-04-06T23:32:24.240Z,4.63
2023-04-06T23:34:52.696Z,3.60
2023-04-06T23:37:21.303Z,5.80
2023-04-06T23:39:49.634Z,3.53
2023-04-06T23:42:18.032Z,4.97
2023-04-06T23:44:47.800Z,4.07
2023-04-06T23:47:16.339Z,4.47
2023-04-06T23:49:44.718Z,3.83
2023-04-06T23:52:13.063Z,4.30
2023-04-06T23:54:41.823Z,4.93
2023-04-06T23:57:10.179Z,5.60
2023-04-06T23:59:38.492Z,4.07
